Time;durP1;ratioP1;P1;durP2;ratioP2;P2;SDS_P1;SDS_P2;PMS_P1;PMS_P2;Temp;Humidity;BMP_temperature;BMP_pressure;BME280_temperature;BME280_humidity;BME280_pressure;Samples;Min_cycle;Max_cycle;Signal;HPM_P1;HPM_P2
2022/11/01 00:00:18;;;;;;;1.10;0.30;;;;;;;;;;6279520;22;20077;-42
2022/11/01 00:02:44;;;;;;;1.27;0.20;;;;;;;;;;6287443;22;20015;-44
2022/11/01 00:05:12;;;;;;;1.70;0.50;;;;;;;;;;6280632;22;20690;-44
2022/11/01 00:07:39;;;;;;;2.63;0.63;;;;;;;;;;6286953;22;20085;-43
2022/11/01 00:10:06;;;;;;;2.53;0.40;;;;;;;;;;6277567;22;20103;-45
2022/11/01 00:12:32;;;;;;;1.50;0.30;;;;;;;;;;6279755;22;20015;-43
2022/11/01 00:14:59;;;;;;;3.47;0.52;;;;;;;;;;6279687;22;20023;-43
2022/11/01 00:17:25;;;;;;;1.90;0.40;;;;;;;;;;6288803;22;20026;-43
2022/11/01 00:19:52;;;;;;;1.80;0.60;;;;;;;;;;6280670;22;20019;-44
2022/11/01 00:22:21;;;;;;;1.70;0.45;;;;;;;;;;6284411;22;20030;-44
2022/11/01 00:24:47;;;;;;;2.83;0.73;;;;;;;;;;6286770;22;20419;-43
2022/11/01 00:27:14;;;;;;;1.60;0.40;;;;;;;;;;6281433;22;20503;-44
2022/11/01 00:29:40;;;;;;;2.22;0.50;;;;;;;;;;6286758;22;20015;-43
2022/11/01 00:32:07;;;;;;;1.85;0.50;;;;;;;;;;6277997;22;20019;-44
2022/11/01 00:34:34;;;;;;;3.60;0.50;;;;;;;;;;6285087;22;20053;-47
2022/11/01 00:37:00;;;;;;;2.10;0.57;;;;;;;;;;6241458;22;20393;-45
2022/11/01 00:39:28;;;;;;;1.35;0.35;;;;;;;;;;6286828;22;20081;-43
2022/11/01 00:41:55;;;;;;;1.70;0.40;;;;;;;;;;6278193;22;20115;-43
2022/11/01 00:44:21;;;;;;;4.03;0.30;;;;;;;;;;6258810;22;20022;-44
2022/11/01 00:46:48;;;;;;;1.85;0.50;;;;;;;;;;6285181;22;20016;-43
2022/11/01 00:49:14;;;;;;;1.40;0.30;;;;;;;;;;6283546;22;20011;-44
2022/11/01 00:51:41;;;;;;;1.45;0.30;;;;;;;;;;6280697;22;20103;-43
2022/11/01 00:54:07;;;;;;;1.83;0.55;;;;;;;;;;6282691;22;20015;-43
2022/11/01 00:56:35;;;;;;;1.60;0.30;;;;;;;;;;6283016;22;20022;-45
2022/11/01 00:59:02;;;;;;;2.33;0.60;;;;;;;;;;6283673;22;20019;-44
2022/11/01 01:01:30;;;;;;;2.33;0.63;;;;;;;;;;6278585;22;20045;-44
2022/11/01 01:03:57;;;;;;;1.30;0.28;;;;;;;;;;6285911;22;20027;-44
2022/11/01 01:06:24;;;;;;;2.38;0.40;;;;;;;;;;6279801;22;20015;-45
2022/11/01 01:08:50;;;;;;;1.45;0.30;;;;;;;;;;6285731;22;20084;-45
2022/11/01 01:11:17;;;;;;;1.55;0.47;;;;;;;;;;6282430;22;20057;-46
2022/11/01 01:13:44;;;;;;;1.30;0.30;;;;;;;;;;6284138;22;20015;-47
2022/11/01 01:16:11;;;;;;;2.42;1.02;;;;;;;;;;6283029;22;20671;-45
2022/11/01 01:18:38;;;;;;;2.05;0.60;;;;;;;;;;6284475;22;20022;-46
2022/11/01 01:21:05;;;;;;;1.67;0.40;;;;;;;;;;6280449;22;20085;-44
2022/11/01 01:23:32;;;;;;;1.48;0.38;;;;;;;;;;6289461;22;20072;-44
2022/11/01 01:25:58;;;;;;;1.30;0.30;;;;;;;;;;6276840;22;20033;-43
2022/11/01 01:28:25;;;;;;;1.33;0.22;;;;;;;;;;6286218;22;20073;-43
2022/11/01 01:30:53;;;;;;;1.50;0.30;;;;;;;;;;6252827;22;20007;-44
2022/11/01 01:33:19;;;;;;;7.85;0.95;;;;;;;;;;6281936;22;20069;-45
2022/11/01 01:35:46;;;;;;;1.50;0.35;;;;;;;;;;6283142;22;20019;-44
2022/11/01 01:38:12;;;;;;;1.87;0.60;;;;;;;;;;6285085;22;20019;-47
2022/11/01 01:40:39;;;;;;;1.30;0.30;;;;;;;;;;6282099;22;20011;-45
2022/11/01 01:43:05;;;;;;;1.58;0.32;;;;;;;;;;6284841;22;20069;-43
2022/11/01 01:45:34;;;;;;;5.63;0.55;;;;;;;;;;6279564;22;20188;-45
2022/11/01 01:48:07;;;;;;;2.05;0.50;;;;;;;;;;6285057;22;20024;-43
2022/11/01 01:50:35;;;;;;;1.70;0.40;;;;;;;;;;6287294;22;20015;-44
2022/11/01 01:53:04;;;;;;;1.30;0.25;;;;;;;;;;6274058;22;20025;-45
2022/11/01 01:55:32;;;;;;;1.65;0.30;;;;;;;;;;6284695;22;20019;-44
2022/11/01 01:57:59;;;;;;;1.33;0.30;;;;;;;;;;6283582;22;20014;-43
2022/11/01 02:00:25;;;;;;;2.17;0.68;;;;;;;;;;6259860;22;20019;-44
2022/11/01 02:02:52;;;;;;;1.70;0.47;;;;;;;;;;6274864;22;20015;-42
2022/11/01 02:05:24;;;;;;;1.60;0.32;;;;;;;;;;6264078;22;20015;-44
2022/11/01 02:07:51;;;;;;;1.60;0.30;;;;;;;;;;6281353;22;20354;-42
2022/11/01 02:10:18;;;;;;;1.30;0.28;;;;;;;;;;6275953;22;20064;-43
2022/11/01 02:12:45;;;;;;;1.63;0.40;;;;;;;;;;6285656;22;20377;-42
2022/11/01 02:15:13;;;;;;;1.23;0.23;;;;;;;;;;6282335;22;20015;-42
2022/11/01 02:17:43;;;;;;;2.78;0.63;;;;;;;;;;6280033;22;20106;-42
2022/11/01 02:20:24;;;;;;;1.55;0.40;;;;;;;;;;6283992;22;20011;-42
2022/11/01 02:23:02;;;;;;;1.65;0.40;;;;;;;;;;6213272;22;20088;-42
2022/11/01 02:25:43;;;;;;;3.35;0.77;;;;;;;;;;6280126;22;20069;-43
2022/11/01 02:28:21;;;;;;;4.53;0.50;;;;;;;;;;6281385;22;20019;-42
2022/11/01 02:30:54;;;;;;;1.67;0.43;;;;;;;;;;6281412;22;20012;-43
2022/11/01 02:33:28;;;;;;;2.33;0.70;;;;;;;;;;6250214;22;20629;-44
2022/11/01 02:35:58;;;;;;;1.85;0.47;;;;;;;;;;6281814;22;20388;-42
2022/11/01 02:38:27;;;;;;;2.00;0.45;;;;;;;;;;6279862;22;20022;-42
2022/11/01 02:40:59;;;;;;;3.50;0.60;;;;;;;;;;6281239;22;20312;-44
2022/11/01 02:43:29;;;;;;;1.80;0.52;;;;;;;;;;6282050;22;20026;-42
2022/11/01 02:45:57;;;;;;;1.52;0.30;;;;;;;;;;6250858;22;20064;-43
2022/11/01 02:48:23;;;;;;;2.63;0.68;;;;;;;;;;6279873;22;20011;-43
2022/11/01 02:50:52;;;;;;;3.00;0.90;;;;;;;;;;6280250;22;20019;-42
2022/11/01 02:53:19;;;;;;;2.33;0.73;;;;;;;;;;6277468;22;20417;-42
2022/11/01 02:55:45;;;;;;;2.20;0.63;;;;;;;;;;6287598;22;20724;-42
2022/11/01 02:58:14;;;;;;;1.95;0.52;;;;;;;;;;6253097;22;20029;-43
2022/11/01 03:00:42;;;;;;;2.72;0.95;;;;;;;;;;6287775;22;20031;-43
2022/11/01 03:03:14;;;;;;;1.63;0.43;;;;;;;;;;6251118;22;20386;-43
2022/11/01 03:05:55;;;;;;;1.77;0.57;;;;;;;;;;6282983;22;20323;-43
2022/11/01 03:08:24;;;;;;;1.38;0.47;;;;;;;;;;6278870;22;20524;-43
2022/11/01 03:10:53;;;;;;;2.28;0.68;;;;;;;;;;6282955;22;20031;-43
2022/11/01 03:13:28;;;;;;;2.33;0.68;;;;;;;;;;6286638;22;20446;-44
2022/11/01 03:15:58;;;;;;;1.40;0.30;;;;;;;;;;6280205;22;20371;-42
2022/11/01 03:18:28;;;;;;;5.30;1.13;;;;;;;;;;6280334;22;20019;-42
2022/11/01 03:20:58;;;;;;;1.17;0.20;;;;;;;;;;6283460;22;20026;-43
2022/11/01 03:23:29;;;;;;;1.10;0.20;;;;;;;;;;6286711;22;20023;-43
2022/11/01 03:25:59;;;;;;;5.45;0.95;;;;;;;;;;6287432;22;20011;-42
2022/11/01 03:28:28;;;;;;;1.75;0.55;;;;;;;;;;6276188;22;20031;-45
2022/11/01 03:30:56;;;;;;;2.10;0.57;;;;;;;;;;6288279;22;20438;-42
2022/11/01 03:33:24;;;;;;;1.60;0.40;;;;;;;;;;6280343;22;20012;-44
2022/11/01 03:35:52;;;;;;;2.40;0.95;;;;;;;;;;6262443;22;20018;-44
2022/11/01 03:38:19;;;;;;;2.92;0.50;;;;;;;;;;6279266;22;20375;-46
2022/11/01 03:40:49;;;;;;;1.58;0.40;;;;;;;;;;6283504;22;20043;-44
2022/11/01 03:43:17;;;;;;;1.80;0.50;;;;;;;;;;6283574;22;20409;-44
2022/11/01 03:45:44;;;;;;;1.77;0.60;;;;;;;;;;6286468;22;20493;-44
2022/11/01 03:48:10;;;;;;;3.42;0.80;;;;;;;;;;6280343;22;20019;-46
2022/11/01 03:50:38;;;;;;;2.20;0.90;;;;;;;;;;6258190;22;20473;-44
2022/11/01 03:53:05;;;;;;;2.03;0.68;;;;;;;;;;6256878;22;20049;-44
2022/11/01 03:55:31;;;;;;;1.57;0.30;;;;;;;;;;6280362;22;20529;-47
2022/11/01 03:57:59;;;;;;;1.85;0.43;;;;;;;;;;6287710;22;20019;-45
2022/11/01 04:00:27;;;;;;;2.55;0.60;;;;;;;;;;6282509;22;20077;-44
2022/11/01 04:02:55;;;;;;;1.70;0.50;;;;;;;;;;6259652;22;20060;-43
2022/11/01 04:05:22;;;;;;;1.45;0.30;;;;;;;;;;6276632;22;20098;-43
2022/11/01 04:07:50;;;;;;;1.30;0.30;;;;;;;;;;6272623;22;20026;-43
2022/11/01 04:10:17;;;;;;;1.55;0.40;;;;;;;;;;6287400;22;20458;-44
2022/11/01 04:12:44;;;;;;;1.90;0.45;;;;;;;;;;6285919;22;20015;-44
2022/11/01 04:20:43;;;;;;;2.33;0.50;;;;;;;;;;6215971;22;20023;-45
2022/11/01 04:23:10;;;;;;;1.40;0.30;;;;;;;;;;6287928;22;20012;-44
2022/11/01 04:25:36;;;;;;;3.53;0.40;;;;;;;;;;6285854;22;20069;-46
2022/11/01 04:28:03;;;;;;;2.92;0.45;;;;;;;;;;6280152;22;20034;-44
2022/11/01 04:30:31;;;;;;;1.92;0.65;;;;;;;;;;6258867;22;20015;-44
2022/11/01 04:32:57;;;;;;;3.53;0.63;;;;;;;;;;6267703;22;20019;-44
2022/11/01 04:35:24;;;;;;;2.47;1.58;;;;;;;;;;6288450;22;20011;-45
2022/11/01 04:37:56;;;;;;;1.67;0.65;;;;;;;;;;6249335;22;20412;-46
2022/11/01 04:40:22;;;;;;;2.22;0.85;;;;;;;;;;6277511;22;20090;-46
2022/11/01 04:42:49;;;;;;;1.65;0.45;;;;;;;;;;6283370;22;20015;-43
2022/11/01 04:45:16;;;;;;;2.73;1.07;;;;;;;;;;6278757;22;20441;-44
2022/11/01 04:47:51;;;;;;;2.05;0.77;;;;;;;;;;6274802;22;20019;-43
2022/11/01 04:50:17;;;;;;;1.83;0.60;;;;;;;;;;6279296;22;20018;-44
2022/11/01 04:52:43;;;;;;;4.45;0.57;;;;;;;;;;6250984;22;20069;-43
2022/11/01 04:55:10;;;;;;;1.95;0.30;;;;;;;;;;6279724;22;20057;-44
2022/11/01 04:57:38;;;;;;;1.87;0.30;;;;;;;;;;6274497;22;20026;-44
2022/11/01 05:00:05;;;;;;;3.08;0.73;;;;;;;;;;6280560;22;20023;-44
2022/11/01 05:02:32;;;;;;;2.58;0.98;;;;;;;;;;6275849;22;20089;-44
2022/11/01 05:05:00;;;;;;;1.52;0.40;;;;;;;;;;6281318;22;20054;-43
2022/11/01 05:07:26;;;;;;;4.85;1.15;;;;;;;;;;6277467;22;20019;-44
2022/11/01 05:09:52;;;;;;;1.07;0.20;;;;;;;;;;6277332;22;20023;-44
2022/11/01 05:12:19;;;;;;;1.35;0.50;;;;;;;;;;6278662;22;20078;-44
2022/11/01 05:14:46;;;;;;;4.30;0.93;;;;;;;;;;6277531;22;20080;-44
2022/11/01 05:17:12;;;;;;;3.63;0.60;;;;;;;;;;6251351;22;20105;-45
2022/11/01 05:19:39;;;;;;;1.50;0.35;;;;;;;;;;6276646;22;20019;-45
2022/11/01 05:22:07;;;;;;;1.40;0.30;;;;;;;;;;6282091;22;20512;-45
2022/11/01 05:24:33;;;;;;;1.55;0.70;;;;;;;;;;6273201;22;20461;-43
2022/11/01 05:27:00;;;;;;;1.60;0.50;;;;;;;;;;6276601;22;20503;-44
2022/11/01 05:29:27;;;;;;;1.70;0.40;;;;;;;;;;6272096;22;20026;-44
2022/11/01 05:31:54;;;;;;;1.88;0.57;;;;;;;;;;6281898;22;20019;-46
2022/11/01 05:34:20;;;;;;;1.90;0.40;;;;;;;;;;6279579;22;20014;-43
2022/11/01 05:36:47;;;;;;;1.70;0.30;;;;;;;;;;6277089;22;20459;-43
2022/11/01 05:39:15;;;;;;;2.42;0.95;;;;;;;;;;6283831;22;20064;-43
2022/11/01 05:41:41;;;;;;;7.30;0.65;;;;;;;;;;6284810;22;20016;-42
2022/11/01 05:44:08;;;;;;;1.85;0.43;;;;;;;;;;6282227;22;20019;-43
2022/11/01 05:46:35;;;;;;;2.47;0.40;;;;;;;;;;6281673;22;20015;-43
2022/11/01 05:49:01;;;;;;;2.20;0.65;;;;;;;;;;6282058;22;20128;-45
2022/11/01 05:51:28;;;;;;;1.88;0.40;;;;;;;;;;6282915;22;20015;-44
2022/11/01 05:53:54;;;;;;;1.55;0.40;;;;;;;;;;6277737;22;20072;-43
2022/11/01 05:56:22;;;;;;;0.98;0.20;;;;;;;;;;6283661;22;20031;-43
2022/11/01 05:58:49;;;;;;;3.27;1.07;;;;;;;;;;6278321;22;20035;-46
2022/11/01 06:01:16;;;;;;;5.55;1.02;;;;;;;;;;6275950;22;20618;-44
2022/11/01 06:03:43;;;;;;;1.75;0.38;;;;;;;;;;6279370;22;20019;-44
2022/11/01 06:06:09;;;;;;;1.25;0.25;;;;;;;;;;6281800;22;20377;-43
2022/11/01 06:08:36;;;;;;;1.70;0.35;;;;;;;;;;6276785;22;20493;-44
2022/11/01 06:11:03;;;;;;;5.33;0.60;;;;;;;;;;6280492;22;20072;-45
2022/11/01 06:13:31;;;;;;;1.88;0.65;;;;;;;;;;6275904;22;20560;-43
2022/11/01 06:15:58;;;;;;;1.27;0.20;;;;;;;;;;6280116;22;20019;-46
2022/11/01 06:18:25;;;;;;;1.75;0.43;;;;;;;;;;6282766;22;20525;-46
2022/11/01 06:20:52;;;;;;;2.42;0.80;;;;;;;;;;6286519;22;20015;-43
2022/11/01 06:23:18;;;;;;;2.80;0.80;;;;;;;;;;6281884;22;20072;-44
2022/11/01 06:25:45;;;;;;;2.30;0.63;;;;;;;;;;6259403;22;20060;-44
2022/11/01 06:28:11;;;;;;;1.92;0.43;;;;;;;;;;6280755;22;20026;-44
2022/11/01 06:30:39;;;;;;;3.17;0.55;;;;;;;;;;6256920;22;20050;-45
2022/11/01 06:33:08;;;;;;;4.13;1.15;;;;;;;;;;6271103;22;20442;-43
2022/11/01 06:35:34;;;;;;;2.00;0.80;;;;;;;;;;6280119;22;20532;-44
2022/11/01 06:38:01;;;;;;;3.95;0.82;;;;;;;;;;6276636;22;20019;-44
2022/11/01 06:40:28;;;;;;;2.58;1.15;;;;;;;;;;6278529;22;20088;-44
2022/11/01 06:42:58;;;;;;;2.50;0.82;;;;;;;;;;6278367;22;20016;-46
2022/11/01 06:45:25;;;;;;;1.38;0.30;;;;;;;;;;6277867;22;20034;-44
2022/11/01 06:47:53;;;;;;;2.40;1.07;;;;;;;;;;6281486;22;20011;-47
2022/11/01 06:50:20;;;;;;;1.70;0.40;;;;;;;;;;6276612;22;20077;-47
2022/11/01 06:52:47;;;;;;;1.60;0.35;;;;;;;;;;6279880;22;20468;-44
2022/11/01 06:55:14;;;;;;;1.63;0.47;;;;;;;;;;6277744;22;20446;-43
2022/11/01 06:57:40;;;;;;;1.33;0.30;;;;;;;;;;6283374;22;20491;-46
2022/11/01 07:00:08;;;;;;;4.13;1.17;;;;;;;;;;6278395;22;20029;-44
2022/11/01 07:02:34;;;;;;;1.42;0.32;;;;;;;;;;6283174;22;20389;-43
2022/11/01 07:05:02;;;;;;;2.17;0.85;;;;;;;;;;6278251;22;20023;-45
2022/11/01 07:07:29;;;;;;;1.92;0.63;;;;;;;;;;6280131;22;20015;-43
2022/11/01 07:09:56;;;;;;;2.40;0.60;;;;;;;;;;6280241;22;20046;-45
2022/11/01 07:12:22;;;;;;;1.80;0.50;;;;;;;;;;6279472;22;20018;-45
2022/11/01 07:14:49;;;;;;;1.15;0.25;;;;;;;;;;6258808;22;20015;-44
2022/11/01 07:17:15;;;;;;;1.05;0.20;;;;;;;;;;6267044;22;20450;-42
2022/11/01 07:19:42;;;;;;;1.02;0.20;;;;;;;;;;6281021;22;20020;-44
2022/11/01 07:22:09;;;;;;;3.50;0.88;;;;;;;;;;6275733;22;20026;-46
2022/11/01 07:24:36;;;;;;;2.20;0.70;;;;;;;;;;6280176;22;20018;-48
2022/11/01 07:27:03;;;;;;;2.28;0.50;;;;;;;;;;6275060;22;20377;-46
2022/11/01 07:29:29;;;;;;;4.18;1.02;;;;;;;;;;6276482;22;20015;-43
2022/11/01 07:31:56;;;;;;;1.40;0.30;;;;;;;;;;6274224;22;20011;-43
2022/11/01 07:34:22;;;;;;;1.65;0.40;;;;;;;;;;6280227;22;20081;-43
2022/11/01 07:36:51;;;;;;;6.23;0.80;;;;;;;;;;6280959;22;20509;-45
2022/11/01 07:39:19;;;;;;;1.42;0.57;;;;;;;;;;6276932;22;20019;-43
2022/11/01 07:41:46;;;;;;;2.75;0.73;;;;;;;;;;6282051;22;20068;-43
2022/11/01 07:44:13;;;;;;;5.43;0.45;;;;;;;;;;6280365;22;20038;-45
2022/11/01 07:46:39;;;;;;;1.60;0.40;;;;;;;;;;6283103;22;20026;-44
2022/11/01 07:49:06;;;;;;;1.80;0.47;;;;;;;;;;6276717;22;20019;-43
2022/11/01 07:51:32;;;;;;;3.30;1.25;;;;;;;;;;6283044;22;20019;-45
2022/11/01 07:53:59;;;;;;;2.13;0.63;;;;;;;;;;6276427;22;20042;-43
2022/11/01 07:56:28;;;;;;;3.70;0.93;;;;;;;;;;6285967;22;20018;-43
2022/11/01 07:58:54;;;;;;;1.63;0.40;;;;;;;;;;6281950;22;20438;-44
2022/11/01 08:01:21;;;;;;;1.77;0.40;;;;;;;;;;6281342;22;20443;-43
2022/11/01 08:03:48;;;;;;;1.38;0.30;;;;;;;;;;6281352;22;20015;-45
2022/11/01 08:06:14;;;;;;;1.92;0.50;;;;;;;;;;6281188;22;20022;-42
2022/11/01 08:08:41;;;;;;;3.20;0.65;;;;;;;;;;6279148;22;20015;-44
2022/11/01 08:11:07;;;;;;;2.78;1.13;;;;;;;;;;6257562;22;20012;-44
2022/11/01 08:13:35;;;;;;;1.70;0.50;;;;;;;;;;6274966;22;20011;-43
2022/11/01 08:16:02;;;;;;;11.95;0.63;;;;;;;;;;6274904;22;20012;-43
2022/11/01 08:18:28;;;;;;;1.60;0.30;;;;;;;;;;6277632;22;20076;-45
2022/11/01 08:20:57;;;;;;;1.70;0.47;;;;;;;;;;6281685;22;20024;-43
2022/11/01 08:23:24;;;;;;;2.40;0.70;;;;;;;;;;6275393;22;20096;-43
2022/11/01 08:25:50;;;;;;;1.97;0.50;;;;;;;;;;6284564;22;20019;-50
2022/11/01 08:28:18;;;;;;;1.30;0.40;;;;;;;;;;6268523;22;20468;-46
2022/11/01 08:30:46;;;;;;;1.70;0.50;;;;;;;;;;6278683;22;20483;-46
2022/11/01 08:33:13;;;;;;;1.27;0.20;;;;;;;;;;6273923;22;20019;-43
2022/11/01 08:35:40;;;;;;;1.70;0.35;;;;;;;;;;6283419;22;20099;-46
2022/11/01 08:38:06;;;;;;;1.97;0.63;;;;;;;;;;6272066;22;20019;-46
2022/11/01 08:40:33;;;;;;;1.30;0.30;;;;;;;;;;6275423;22;20025;-44
2022/11/01 08:43:01;;;;;;;2.17;0.60;;;;;;;;;;6254303;22;20023;-43
2022/11/01 08:45:28;;;;;;;2.33;0.47;;;;;;;;;;6257805;22;20080;-44
2022/11/01 08:47:59;;;;;;;1.65;0.43;;;;;;;;;;6266210;22;20017;-45
2022/11/01 08:50:26;;;;;;;1.57;0.40;;;;;;;;;;6259101;22;20019;-44
2022/11/01 08:52:52;;;;;;;1.85;0.55;;;;;;;;;;6268499;22;20015;-48
2022/11/01 08:55:20;;;;;;;1.60;0.40;;;;;;;;;;6265212;22;20015;-47
2022/11/01 08:57:47;;;;;;;2.35;0.55;;;;;;;;;;6264825;22;20019;-45
2022/11/01 09:00:15;;;;;;;1.95;0.60;;;;;;;;;;6260407;22;20029;-44
2022/11/01 09:02:42;;;;;;;1.40;0.30;;;;;;;;;;6263513;22;20080;-43
2022/11/01 09:05:10;;;;;;;1.40;0.30;;;;;;;;;;6257274;22;20476;-43
2022/11/01 09:07:37;;;;;;;1.33;0.28;;;;;;;;;;6263091;22;20019;-45
2022/11/01 09:10:04;;;;;;;1.02;0.20;;;;;;;;;;6258636;22;20020;-44
2022/11/01 09:12:31;;;;;;;1.63;0.50;;;;;;;;;;6254923;22;20030;-43
2022/11/01 09:14:57;;;;;;;1.70;0.50;;;;;;;;;;6264154;22;20019;-44
2022/11/01 09:17:24;;;;;;;3.30;1.15;;;;;;;;;;6256200;22;20015;-44
2022/11/01 09:19:51;;;;;;;2.50;1.05;;;;;;;;;;6268586;22;20019;-46
2022/11/01 09:22:19;;;;;;;2.40;0.65;;;;;;;;;;6260469;22;20018;-45
2022/11/01 09:24:45;;;;;;;3.13;1.25;;;;;;;;;;6239609;22;20019;-45
2022/11/01 09:27:12;;;;;;;1.27;0.30;;;;;;;;;;6237088;22;20392;-44
2022/11/01 09:29:39;;;;;;;1.40;0.30;;;;;;;;;;6260520;22;20409;-46
2022/11/01 09:32:06;;;;;;;1.88;0.50;;;;;;;;;;6261782;22;20011;-44
2022/11/01 09:34:33;;;;;;;1.20;0.20;;;;;;;;;;6263631;22;20011;-46
2022/11/01 09:36:59;;;;;;;1.15;0.20;;;;;;;;;;6260530;22;20618;-45
2022/11/01 09:39:27;;;;;;;2.60;0.67;;;;;;;;;;6257677;22;20023;-43
2022/11/01 09:41:58;;;;;;;1.75;0.50;;;;;;;;;;6264166;22;20385;-45
2022/11/01 09:44:26;;;;;;;1.65;0.30;;;;;;;;;;6265940;22;20019;-45
2022/11/01 09:46:55;;;;;;;1.10;0.20;;;;;;;;;;6262832;22;20042;-43
2022/11/01 09:49:22;;;;;;;1.65;0.40;;;;;;;;;;6265531;22;20019;-46
2022/11/01 09:51:49;;;;;;;1.30;0.30;;;;;;;;;;6258988;22;20049;-43
2022/11/01 09:54:16;;;;;;;3.45;0.40;;;;;;;;;;6265564;22;20431;-47
2022/11/01 09:56:49;;;;;;;5.85;0.68;;;;;;;;;;6258993;22;20019;-44
2022/11/01 09:59:21;;;;;;;1.45;0.30;;;;;;;;;;6149049;22;20253;-49
2022/11/01 10:01:52;;;;;;;2.20;0.40;;;;;;;;;;6156660;22;20062;-46
2022/11/01 10:04:25;;;;;;;1.70;0.40;;;;;;;;;;6219317;22;20508;-45
2022/11/01 10:06:54;;;;;;;2.08;0.70;;;;;;;;;;6103757;23;20028;-42
2022/11/01 10:09:30;;;;;;;5.63;0.30;;;;;;;;;;6180857;23;20016;-42
2022/11/01 10:12:03;;;;;;;1.40;0.30;;;;;;;;;;6189692;23;20023;-42
2022/11/01 10:14:45;;;;;;;1.60;0.40;;;;;;;;;;6176903;23;20314;-44
2022/11/01 10:17:13;;;;;;;1.50;0.30;;;;;;;;;;6186974;23;20093;-47
2022/11/01 10:19:41;;;;;;;1.50;0.40;;;;;;;;;;6188847;23;20163;-44
2022/11/01 10:22:13;;;;;;;2.22;0.60;;;;;;;;;;6176152;23;20408;-42
2022/11/01 10:24:41;;;;;;;1.67;0.40;;;;;;;;;;6193941;23;20523;-45
2022/11/01 10:27:13;;;;;;;2.20;0.60;;;;;;;;;;6193240;23;20099;-45
2022/11/01 10:29:43;;;;;;;1.80;0.50;;;;;;;;;;6187131;23;20030;-48
2022/11/01 10:35:14;;;;;;;4.30;0.57;;;;;;;;;;6202615;23;20025;-43
2022/11/01 10:37:43;;;;;;;4.57;0.35;;;;;;;;;;6202402;23;20024;-46
2022/11/01 10:40:12;;;;;;;1.45;0.32;;;;;;;;;;6170071;23;20405;-46
2022/11/01 10:42:40;;;;;;;1.73;0.40;;;;;;;;;;6213245;23;20508;-44
2022/11/01 10:45:08;;;;;;;1.35;0.30;;;;;;;;;;6204831;23;20082;-42
2022/11/01 10:47:34;;;;;;;1.50;0.40;;;;;;;;;;6204796;23;20012;-43
2022/11/01 10:50:02;;;;;;;1.27;0.25;;;;;;;;;;6202289;23;20016;-42
2022/11/01 10:52:31;;;;;;;2.45;0.60;;;;;;;;;;6213846;23;20402;-43
2022/11/01 10:54:58;;;;;;;1.30;0.30;;;;;;;;;;6204846;23;20065;-45
2022/11/01 10:57:31;;;;;;;1.63;0.30;;;;;;;;;;6213809;23;20020;-45
2022/11/01 11:00:00;;;;;;;3.05;0.77;;;;;;;;;;6213267;23;20043;-44
2022/11/01 11:02:28;;;;;;;2.40;0.57;;;;;;;;;;6207375;23;20016;-42
2022/11/01 11:04:55;;;;;;;1.40;0.30;;;;;;;;;;6213319;22;20095;-43
2022/11/01 11:07:23;;;;;;;3.43;0.80;;;;;;;;;;6203555;23;20476;-45
2022/11/01 11:09:49;;;;;;;1.50;0.30;;;;;;;;;;6176621;23;20020;-44
2022/11/01 11:12:18;;;;;;;3.05;0.68;;;;;;;;;;6202988;23;20050;-43
2022/11/01 11:14:46;;;;;;;1.65;0.20;;;;;;;;;;6199435;23;20016;-42
2022/11/01 11:17:19;;;;;;;1.42;0.25;;;;;;;;;;6178017;23;20027;-42
2022/11/01 11:19:46;;;;;;;5.30;0.50;;;;;;;;;;6179290;23;20016;-43
2022/11/01 11:22:13;;;;;;;2.30;0.40;;;;;;;;;;6193302;23;20020;-44
2022/11/01 11:24:41;;;;;;;1.80;0.40;;;;;;;;;;6215021;23;20423;-46
2022/11/01 11:27:12;;;;;;;1.67;0.40;;;;;;;;;;6205454;23;20020;-43
2022/11/01 11:29:39;;;;;;;1.75;0.50;;;;;;;;;;6212489;23;20016;-45
2022/11/01 11:32:08;;;;;;;3.80;0.80;;;;;;;;;;6196907;23;20656;-45
2022/11/01 11:34:36;;;;;;;1.38;0.43;;;;;;;;;;6219813;23;20636;-44
2022/11/01 11:37:05;;;;;;;1.45;0.30;;;;;;;;;;6203504;23;20137;-43
2022/11/01 11:39:34;;;;;;;1.60;0.40;;;;;;;;;;6216246;23;20020;-44
2022/11/01 11:42:11;;;;;;;1.30;0.30;;;;;;;;;;6202495;23;20016;-44
2022/11/01 11:44:42;;;;;;;1.40;0.30;;;;;;;;;;6207942;23;20670;-42
2022/11/01 11:47:18;;;;;;;1.38;0.30;;;;;;;;;;6209812;23;20111;-43
2022/11/01 11:49:47;;;;;;;4.93;0.80;;;;;;;;;;6210646;23;20521;-44
2022/11/01 11:52:18;;;;;;;1.70;0.43;;;;;;;;;;6215248;23;20050;-46
2022/11/01 11:54:45;;;;;;;2.15;0.30;;;;;;;;;;6208212;23;20461;-43
2022/11/01 11:57:16;;;;;;;2.90;0.50;;;;;;;;;;6216896;23;20023;-47
2022/11/01 11:59:43;;;;;;;1.40;0.30;;;;;;;;;;6199734;23;20028;-43
2022/11/01 12:02:15;;;;;;;1.70;0.32;;;;;;;;;;6213990;23;20420;-42
2022/11/01 12:04:45;;;;;;;1.52;0.40;;;;;;;;;;6206224;22;20024;-46
2022/11/01 12:07:23;;;;;;;1.60;0.40;;;;;;;;;;6191766;23;20311;-48
2022/11/01 12:09:49;;;;;;;1.40;0.30;;;;;;;;;;6191920;23;20016;-45
2022/11/01 12:12:19;;;;;;;1.50;0.40;;;;;;;;;;6174925;23;20028;-43
2022/11/01 12:14:46;;;;;;;1.58;0.35;;;;;;;;;;6190743;23;20763;-49
2022/11/01 12:17:26;;;;;;;1.75;0.30;;;;;;;;;;6188807;23;20442;-43
2022/11/01 12:19:58;;;;;;;2.03;0.73;;;;;;;;;;6194032;23;20027;-44
2022/11/01 12:22:27;;;;;;;1.10;0.27;;;;;;;;;;6180096;23;20107;-48
2022/11/01 12:24:56;;;;;;;1.30;0.28;;;;;;;;;;6134593;23;20432;-45
2022/11/01 12:27:24;;;;;;;1.00;0.20;;;;;;;;;;6183743;23;20012;-45
2022/11/01 12:29:52;;;;;;;1.60;0.40;;;;;;;;;;6196646;23;20397;-44
2022/11/01 12:32:21;;;;;;;1.50;0.30;;;;;;;;;;6179629;23;20020;-45
2022/11/01 12:34:48;;;;;;;1.60;0.40;;;;;;;;;;6197475;23;20534;-44
2022/11/01 12:37:17;;;;;;;1.60;0.40;;;;;;;;;;6199781;23;20090;-44
2022/11/01 12:39:50;;;;;;;2.00;0.60;;;;;;;;;;6190183;23;20379;-44
2022/11/01 12:42:19;;;;;;;1.42;0.30;;;;;;;;;;6189408;23;20030;-44
2022/11/01 12:44:48;;;;;;;1.88;0.50;;;;;;;;;;6187378;23;20028;-43
2022/11/01 12:47:16;;;;;;;1.50;0.40;;;;;;;;;;6200308;23;20012;-43
2022/11/01 12:49:47;;;;;;;1.48;0.32;;;;;;;;;;6181859;23;20221;-44
2022/11/01 12:52:17;;;;;;;1.48;0.30;;;;;;;;;;6183008;23;20016;-43
2022/11/01 12:54:47;;;;;;;1.70;0.40;;;;;;;;;;6190162;23;20145;-43
2022/11/01 12:57:15;;;;;;;1.33;0.30;;;;;;;;;;6196804;23;20016;-43
2022/11/01 12:59:43;;;;;;;2.30;0.70;;;;;;;;;;6179282;23;20020;-44
2022/11/01 13:02:17;;;;;;;1.85;0.40;;;;;;;;;;6171998;23;20293;-44
2022/11/01 13:04:51;;;;;;;1.40;0.40;;;;;;;;;;6163666;23;20020;-43
2022/11/01 13:07:22;;;;;;;1.40;0.30;;;;;;;;;;6179745;23;20358;-44
2022/11/01 13:09:56;;;;;;;2.08;0.57;;;;;;;;;;6193310;23;20020;-43
2022/11/01 13:12:27;;;;;;;1.30;0.20;;;;;;;;;;6180889;23;20094;-43
2022/11/01 13:14:59;;;;;;;1.92;0.57;;;;;;;;;;6191033;23;20091;-42
2022/11/01 13:17:31;;;;;;;1.77;0.50;;;;;;;;;;6158173;23;20024;-43
2022/11/01 13:20:04;;;;;;;1.95;0.65;;;;;;;;;;6189078;23;20026;-45
2022/11/01 13:22:34;;;;;;;2.78;0.95;;;;;;;;;;6169717;23;20009;-42
2022/11/01 13:25:05;;;;;;;1.50;0.30;;;;;;;;;;6154106;23;20020;-43
2022/11/01 13:27:36;;;;;;;2.35;0.63;;;;;;;;;;6183579;23;20464;-42
2022/11/01 13:30:04;;;;;;;2.13;0.95;;;;;;;;;;6184972;23;20070;-44
2022/11/01 13:32:35;;;;;;;1.63;0.40;;;;;;;;;;6176229;23;20027;-43
2022/11/01 13:35:14;;;;;;;1.85;0.30;;;;;;;;;;6182800;23;20027;-42
2022/11/01 13:37:44;;;;;;;1.87;0.47;;;;;;;;;;6183085;23;20365;-44
2022/11/01 13:40:19;;;;;;;2.05;0.40;;;;;;;;;;6190690;23;20027;-44
2022/11/01 13:42:47;;;;;;;1.92;0.57;;;;;;;;;;6181057;23;20015;-44
2022/11/01 13:45:35;;;;;;;1.40;0.30;;;;;;;;;;6190336;23;20513;-42
2022/11/01 13:48:07;;;;;;;2.95;0.95;;;;;;;;;;6127540;23;20024;-44
2022/11/01 13:50:57;;;;;;;1.50;0.40;;;;;;;;;;6186356;23;20020;-44
2022/11/01 13:53:29;;;;;;;1.90;0.40;;;;;;;;;;6185997;23;20016;-43
2022/11/01 13:55:59;;;;;;;1.60;0.30;;;;;;;;;;6182711;23;20093;-43
2022/11/01 13:58:27;;;;;;;2.40;0.40;;;;;;;;;;6161843;23;20512;-44
2022/11/01 14:00:55;;;;;;;1.55;0.30;;;;;;;;;;6172401;23;20024;-45
2022/11/01 14:03:23;;;;;;;1.50;0.20;;;;;;;;;;6158898;23;20016;-45
2022/11/01 14:06:04;;;;;;;3.42;1.15;;;;;;;;;;6160618;23;20745;-46
2022/11/01 14:08:36;;;;;;;3.70;0.50;;;;;;;;;;6186043;23;20557;-43
2022/11/01 14:11:04;;;;;;;1.90;0.50;;;;;;;;;;6192225;23;20594;-44
2022/11/01 14:13:32;;;;;;;2.45;0.60;;;;;;;;;;6174926;23;20583;-42
2022/11/01 14:18:49;;;;;;;1.40;0.30;;;;;;;;;;6202536;22;20107;-39
2022/11/01 14:21:21;;;;;;;1.70;0.50;;;;;;;;;;6191135;23;20181;-39
2022/11/01 14:23:49;;;;;;;1.83;0.43;;;;;;;;;;6190643;23;20012;-42
2022/11/01 14:26:24;;;;;;;2.13;0.50;;;;;;;;;;6204821;23;20428;-39
2022/11/01 14:28:53;;;;;;;2.53;0.70;;;;;;;;;;6212462;23;20290;-39
2022/11/01 14:31:20;;;;;;;1.95;0.52;;;;;;;;;;6217360;23;20016;-41
2022/11/01 14:33:47;;;;;;;1.83;0.40;;;;;;;;;;6211526;23;20042;-40
2022/11/01 14:36:15;;;;;;;1.85;0.50;;;;;;;;;;6215546;23;20043;-39
2022/11/01 14:38:45;;;;;;;2.35;0.82;;;;;;;;;;6221028;23;20073;-41
2022/11/01 14:41:13;;;;;;;1.33;0.30;;;;;;;;;;6216207;23;20524;-40
2022/11/01 14:43:44;;;;;;;1.80;0.45;;;;;;;;;;6212886;23;20043;-40
2022/11/01 14:46:12;;;;;;;3.85;0.52;;;;;;;;;;6206294;23;20039;-41
2022/11/01 14:48:41;;;;;;;3.33;0.63;;;;;;;;;;6196319;23;20019;-40
2022/11/01 14:51:11;;;;;;;2.58;0.57;;;;;;;;;;6208128;23;20446;-40
2022/11/01 14:53:38;;;;;;;1.60;0.40;;;;;;;;;;6202109;23;20070;-40
2022/11/01 14:56:08;;;;;;;1.98;0.28;;;;;;;;;;6180066;23;20012;-42
2022/11/01 14:58:36;;;;;;;3.13;0.65;;;;;;;;;;6196870;23;20638;-42
2022/11/01 15:01:05;;;;;;;2.25;0.93;;;;;;;;;;6192832;23;20052;-40